Time;durP1;ratioP1;P1;durP2;ratioP2;P2;SDS_P1;SDS_P2;PMS_P1;PMS_P2;Temp;Humidity;BMP_temperature;BMP_pressure;BME280_temperature;BME280_humidity;BME280_pressure;Samples;Min_cycle;Max_cycle;Signal;HPM_P1;HPM_P2
2022/03/05 00:00:35;;;;;;;36.15;19.52;;;;;;;-0.36;80.11;101987.28;5051938;28;20021;-76
2022/03/05 00:03:01;;;;;;;39.08;19.05;;;;;;;-0.39;81.13;101982.03;5051236;28;20447;-76
2022/03/05 00:05:27;;;;;;;38.10;19.17;;;;;;;-0.40;81.35;101983.72;5051832;28;20033;-76
2022/03/05 00:07:53;;;;;;;38.67;20.55;;;;;;;-0.43;81.38;101987.84;5051013;28;20021;-76
2022/03/05 00:10:19;;;;;;;44.05;20.70;;;;;;;-0.45;81.31;101979.25;5051720;28;20025;-76
2022/03/05 00:12:53;;;;;;;42.70;20.75;;;;;;;-0.45;81.29;101984.38;5051591;28;20028;-76
2022/03/05 00:15:20;;;;;;;39.17;19.90;;;;;;;-0.51;81.71;101983.31;5050722;28;20035;-76
2022/03/05 00:17:47;;;;;;;44.10;21.20;;;;;;;-0.54;81.98;101995.13;5051440;28;20380;-76
2022/03/05 00:20:13;;;;;;;42.08;20.65;;;;;;;-0.58;82.58;101994.13;5051668;28;20028;-76
2022/03/05 00:22:38;;;;;;;44.28;22.42;;;;;;;-0.60;82.85;101993.19;5050820;28;20492;-75
2022/03/05 00:25:04;;;;;;;43.65;21.70;;;;;;;-0.63;83.26;101987.06;5051819;28;20366;-75
2022/03/05 00:27:30;;;;;;;47.22;21.27;;;;;;;-0.61;83.11;101996.56;5051425;28;20032;-76
2022/03/05 00:29:55;;;;;;;40.30;20.17;;;;;;;-0.62;83.62;101996.47;5050512;28;20025;-76
2022/03/05 00:32:21;;;;;;;38.78;19.65;;;;;;;-0.68;83.94;101994.56;5051639;28;20102;-76
2022/03/05 00:34:47;;;;;;;42.55;20.25;;;;;;;-0.69;83.92;101995.34;5051423;28;20029;-76
2022/03/05 00:37:12;;;;;;;41.92;19.80;;;;;;;-0.67;83.65;101992.88;5050805;28;20032;-75
2022/03/05 00:39:37;;;;;;;40.97;19.23;;;;;;;-0.69;84.01;101997.91;5051248;28;20040;-76
2022/03/05 00:42:03;;;;;;;41.67;18.48;;;;;;;-0.74;84.26;101994.31;5051582;28;20031;-76
2022/03/05 00:44:29;;;;;;;40.30;19.08;;;;;;;-0.80;84.07;101992.38;5050482;28;20796;-76
2022/03/05 00:46:54;;;;;;;44.20;19.35;;;;;;;-0.83;84.48;101993.94;5051462;28;20115;-76
2022/03/05 00:49:20;;;;;;;41.60;19.25;;;;;;;-0.85;85.60;101986.19;5051184;28;20045;-76
2022/03/05 00:51:45;;;;;;;44.47;19.95;;;;;;;-0.87;84.81;101992.06;5050523;28;20552;-76
2022/03/05 00:54:10;;;;;;;43.42;18.25;;;;;;;-0.92;84.85;101984.16;5051274;28;20063;-76
2022/03/05 00:56:36;;;;;;;45.15;19.83;;;;;;;-0.95;86.15;101989.16;5051533;28;20047;-76
2022/03/05 00:59:01;;;;;;;40.90;18.27;;;;;;;-0.98;86.00;101983.94;5050340;28;20495;-76
2022/03/05 01:01:26;;;;;;;42.40;18.52;;;;;;;-1.02;85.44;101994.84;5052386;28;20055;-76
2022/03/05 01:03:52;;;;;;;45.20;19.10;;;;;;;-1.03;85.87;101985.41;5055223;28;20103;-76
2022/03/05 01:06:17;;;;;;;46.03;19.45;;;;;;;-1.15;85.83;101975.53;5054350;28;20029;-76
2022/03/05 01:08:43;;;;;;;48.78;20.77;;;;;;;-1.09;86.05;101992.84;5054922;28;20086;-76
2022/03/05 01:11:08;;;;;;;41.80;18.88;;;;;;;-1.12;86.86;101990.16;5054740;28;20108;-76
2022/03/05 01:13:37;;;;;;;40.78;19.13;;;;;;;-1.12;86.63;101990.16;5054708;28;20039;-76
2022/03/05 01:16:02;;;;;;;46.10;19.38;;;;;;;-1.12;86.64;101993.56;5055505;28;20114;-75
2022/03/05 01:18:28;;;;;;;45.95;18.98;;;;;;;-1.16;86.67;101984.03;5053987;28;20045;-76
2022/03/05 01:20:53;;;;;;;44.30;19.20;;;;;;;-1.20;86.75;101985.59;5054812;28;20116;-76
2022/03/05 01:23:18;;;;;;;43.38;19.10;;;;;;;-1.25;87.15;101983.63;5054860;28;20025;-76
2022/03/05 01:25:44;;;;;;;46.92;19.63;;;;;;;-1.27;86.99;101985.28;5054235;28;20369;-76
2022/03/05 01:28:09;;;;;;;46.95;20.00;;;;;;;-1.31;87.61;101989.38;5054585;28;20017;-76
2022/03/05 01:30:34;;;;;;;42.28;18.77;;;;;;;-1.35;87.21;101974.69;5054628;28;20037;-76
2022/03/05 01:33:00;;;;;;;47.53;18.92;;;;;;;-1.32;87.62;101987.59;5054021;28;20029;-76
2022/03/05 01:35:25;;;;;;;42.88;19.50;;;;;;;-1.35;87.31;101991.72;5054407;28;20116;-76
2022/03/05 01:37:51;;;;;;;47.35;19.65;;;;;;;-1.39;87.88;101990.72;5054326;28;20029;-76
2022/03/05 01:40:16;;;;;;;47.20;20.80;;;;;;;-1.43;87.76;101989.72;5053567;28;20074;-76
2022/03/05 01:42:41;;;;;;;49.45;19.48;;;;;;;-1.46;88.42;101988.69;5054267;28;20020;-76
2022/03/05 01:45:11;;;;;;;48.75;20.88;;;;;;;-1.48;88.22;101980.94;5054799;28;20024;-76
2022/03/05 01:47:38;;;;;;;49.72;20.50;;;;;;;-1.51;88.10;101985.06;5053638;28;20147;-76
2022/03/05 01:50:04;;;;;;;45.25;19.95;;;;;;;-1.54;88.25;101988.34;5054665;28;20436;-76
2022/03/05 01:52:30;;;;;;;50.60;20.85;;;;;;;-1.57;88.53;101983.13;5054299;28;20875;-75
2022/03/05 01:54:55;;;;;;;45.58;19.83;;;;;;;-1.61;88.74;101982.91;5053494;28;20086;-76
2022/03/05 01:57:21;;;;;;;52.30;21.55;;;;;;;-1.61;88.71;101982.91;5054011;28;20025;-75
2022/03/05 01:59:46;;;;;;;48.55;20.90;;;;;;;-1.69;88.88;101980.88;5054155;28;20488;-76
2022/03/05 02:02:11;;;;;;;49.33;21.20;;;;;;;-1.74;88.89;101979.78;5053343;28;20032;-76
2022/03/05 02:04:36;;;;;;;51.60;21.02;;;;;;;-1.76;89.35;101986.53;5053969;28;20532;-76
2022/03/05 02:07:02;;;;;;;46.50;20.27;;;;;;;-1.76;89.05;101989.09;5054187;28;20024;-76
2022/03/05 02:09:27;;;;;;;52.13;22.83;;;;;;;-1.85;89.28;101978.44;5053049;28;20029;-75
2022/03/05 02:11:52;;;;;;;51.78;21.63;;;;;;;-1.82;89.40;101991.38;5053724;28;20108;-75
2022/03/05 02:14:19;;;;;;;52.55;22.38;;;;;;;-1.83;89.86;101996.41;5052071;28;20112;-75
2022/03/05 02:16:45;;;;;;;48.95;21.77;;;;;;;-1.91;89.87;101985.84;5053820;28;20029;-75
2022/03/05 02:19:10;;;;;;;51.88;21.25;;;;;;;-1.91;90.37;101983.28;5053756;28;20033;-75
2022/03/05 02:21:36;;;;;;;52.25;21.77;;;;;;;-1.92;90.38;101991.75;5053347;28;20024;-75
2022/03/05 02:24:03;;;;;;;48.78;22.23;;;;;;;-1.95;90.23;101979.72;5053849;28;20017;-75
2022/03/05 02:26:28;;;;;;;53.75;22.13;;;;;;;-1.97;90.37;101980.44;5053500;28;20372;-76
2022/03/05 02:28:54;;;;;;;51.97;21.08;;;;;;;-1.98;90.45;101973.59;5052899;28;20013;-75
2022/03/05 02:31:19;;;;;;;53.70;21.45;;;;;;;-2.02;91.10;101964.03;5053635;28;20037;-75
2022/03/05 02:33:45;;;;;;;55.92;23.52;;;;;;;-2.00;91.05;101973.50;5053287;28;20496;-75
2022/03/05 02:36:10;;;;;;;54.97;22.52;;;;;;;-2.02;91.20;101964.91;5052605;28;20077;-76
2022/03/05 02:38:36;;;;;;;51.40;21.50;;;;;;;-2.15;91.46;101953.25;5053589;28;20029;-76
2022/03/05 02:41:01;;;;;;;53.72;22.77;;;;;;;-2.17;91.49;101957.41;5053401;28;20465;-75
2022/03/05 02:43:27;;;;;;;52.78;22.00;;;;;;;-2.16;92.01;101954.06;5052634;28;20052;-75
2022/03/05 02:45:52;;;;;;;56.92;23.98;;;;;;;-2.19;92.22;101956.47;5053283;28;20032;-75
2022/03/05 02:48:19;;;;;;;53.75;22.00;;;;;;;-2.17;92.44;101965.06;5052763;28;20072;-75
2022/03/05 02:50:46;;;;;;;52.53;22.75;;;;;;;-2.19;92.16;101976.91;5052160;28;20437;-75
2022/03/05 02:53:11;;;;;;;55.42;24.75;;;;;;;-2.18;92.04;101981.22;5053091;28;20064;-75
2022/03/05 02:55:39;;;;;;;54.35;21.67;;;;;;;-2.19;92.18;101973.47;5052825;28;20119;-76
2022/03/05 02:58:04;;;;;;;53.45;22.08;;;;;;;-2.19;92.22;101979.47;5052728;28;20029;-75
2022/03/05 03:00:30;;;;;;;48.88;21.35;;;;;;;-2.20;92.07;101982.81;5053091;28;20059;-75
2022/03/05 03:02:56;;;;;;;52.88;22.67;;;;;;;-2.22;92.50;101975.91;5052926;28;20110;-75
2022/03/05 03:05:21;;;;;;;54.08;22.88;;;;;;;-2.21;92.06;101980.19;5052174;28;20060;-76
2022/03/05 03:07:47;;;;;;;56.45;23.35;;;;;;;-2.24;92.11;101968.16;5052742;28;20016;-76
2022/03/05 03:10:14;;;;;;;55.80;23.42;;;;;;;-2.25;92.81;101975.75;5052585;28;20491;-76
2022/03/05 03:12:40;;;;;;;53.08;21.52;;;;;;;-2.31;92.47;101970.34;5049207;28;20025;-75
2022/03/05 03:15:08;;;;;;;58.75;24.13;;;;;;;-2.33;92.80;101972.81;5033024;28;20043;-76
2022/03/05 03:17:44;;;;;;;58.63;22.33;;;;;;;-2.33;92.64;101970.25;5032603;28;20029;-75
2022/03/05 03:20:11;;;;;;;52.42;22.45;;;;;;;-2.34;92.48;101965.97;5032806;28;20017;-75
2022/03/05 03:22:37;;;;;;;53.80;22.83;;;;;;;-2.39;92.33;101965.78;5032488;28;20091;-75
2022/03/05 03:25:04;;;;;;;55.88;23.10;;;;;;;-2.43;92.71;101962.97;5031787;28;20037;-75
2022/03/05 03:27:29;;;;;;;53.30;22.60;;;;;;;-2.45;93.17;101962.06;5032656;28;20052;-75
2022/03/05 03:29:54;;;;;;;51.30;21.70;;;;;;;-2.43;93.20;101963.84;5032487;28;20038;-75
2022/03/05 03:32:20;;;;;;;54.60;23.13;;;;;;;-2.40;93.24;101966.56;5031763;28;20173;-75
2022/03/05 03:34:45;;;;;;;50.78;20.85;;;;;;;-2.39;93.14;101955.56;5032343;28;20029;-75
2022/03/05 03:37:10;;;;;;;53.92;22.67;;;;;;;-2.40;92.90;101960.56;5032282;28;20112;-75
2022/03/05 03:39:35;;;;;;;50.22;21.65;;;;;;;-2.46;92.94;101961.16;5031782;28;20037;-75
2022/03/05 03:42:01;;;;;;;52.85;22.13;;;;;;;-2.49;92.99;101965.25;5032426;28;20044;-75
2022/03/05 03:44:26;;;;;;;52.65;22.73;;;;;;;-2.60;93.01;101952.84;5032279;28;20040;-75
2022/03/05 03:46:53;;;;;;;49.30;21.35;;;;;;;-2.64;92.88;101967.94;5031463;28;20120;-75
2022/03/05 03:49:18;;;;;;;56.17;22.60;;;;;;;-2.75;93.23;101964.84;5031969;28;20045;-74
2022/03/05 03:51:44;;;;;;;55.58;22.25;;;;;;;-2.83;93.59;101964.50;5031991;28;20025;-75
2022/03/05 03:54:09;;;;;;;53.63;23.20;;;;;;;-2.78;93.72;101977.50;5031403;28;20026;-75
2022/03/05 03:56:34;;;;;;;58.97;23.30;;;;;;;-2.78;93.42;101971.50;5032346;28;20478;-75
2022/03/05 03:58:59;;;;;;;56.85;23.00;;;;;;;-2.78;93.99;101967.28;5031799;28;20057;-75
2022/03/05 04:01:25;;;;;;;56.92;22.35;;;;;;;-2.83;93.86;101964.50;5031337;28;20030;-75
2022/03/05 04:03:50;;;;;;;55.78;22.85;;;;;;;-2.85;93.66;101967.75;5031870;28;20025;-75
2022/03/05 04:06:15;;;;;;;55.10;22.63;;;;;;;-2.93;93.51;101953.78;5031788;28;20469;-75
2022/03/05 04:08:43;;;;;;;51.72;22.20;;;;;;;-2.96;93.33;101956.16;5031082;28;20029;-75
2022/03/05 04:11:11;;;;;;;57.40;22.98;;;;;;;-3.03;93.50;101965.19;5032189;28;20051;-75
2022/03/05 04:13:37;;;;;;;51.72;23.33;;;;;;;-3.04;94.37;101957.44;5032030;28;20025;-75
2022/03/05 04:16:02;;;;;;;55.65;23.17;;;;;;;-3.06;94.76;101960.81;5031134;28;20048;-75
2022/03/05 04:18:27;;;;;;;56.17;25.42;;;;;;;-3.09;94.58;101965.75;5031619;28;20488;-75
2022/03/05 04:20:53;;;;;;;59.22;25.45;;;;;;;-3.03;94.70;101980.50;5031327;28;20036;-75
2022/03/05 04:23:18;;;;;;;58.05;25.95;;;;;;;-3.01;94.67;101973.78;5031091;28;20013;-75
2022/03/05 04:25:43;;;;;;;58.47;25.80;;;;;;;-3.03;95.26;101974.53;5031760;28;20473;-75
2022/03/05 04:28:08;;;;;;;63.38;27.02;;;;;;;-3.03;95.14;101967.75;5031257;28;20028;-75
2022/03/05 04:30:34;;;;;;;63.70;27.42;;;;;;;-3.03;95.26;101974.53;5031560;28;20029;-75
2022/03/05 04:33:00;;;;;;;60.20;27.83;;;;;;;-3.07;95.64;101971.81;5031449;28;20112;-75
2022/03/05 04:35:25;;;;;;;61.53;27.75;;;;;;;-3.09;95.62;101975.09;5030513;28;20120;-75
2022/03/05 04:37:51;;;;;;;60.25;26.52;;;;;;;-3.14;95.43;101981.63;5035189;28;20113;-75
2022/03/05 04:40:17;;;;;;;61.70;24.55;;;;;;;-3.18;95.87;101988.25;5035504;28;20049;-75
2022/03/05 04:42:42;;;;;;;58.80;23.95;;;;;;;-3.25;96.22;101976.00;5034821;28;20029;-75
2022/03/05 04:45:08;;;;;;;56.55;24.25;;;;;;;-3.24;96.56;101980.28;5035889;28;20068;-75
2022/03/05 04:47:34;;;;;;;57.00;23.88;;;;;;;-3.25;96.81;101985.31;5035308;28;20083;-75
2022/03/05 04:50:00;;;;;;;58.58;24.15;;;;;;;-3.24;96.83;101985.38;5034758;28;20032;-75
2022/03/05 04:52:25;;;;;;;63.13;23.98;;;;;;;-3.21;96.53;101985.53;5035235;28;20029;-75
2022/03/05 04:54:50;;;;;;;61.63;24.08;;;;;;;-3.22;97.09;101982.94;5035408;28;20029;-75
2022/03/05 04:57:15;;;;;;;59.40;23.95;;;;;;;-3.28;96.79;101978.38;5034294;28;20039;-75
2022/03/05 04:59:41;;;;;;;53.67;23.35;;;;;;;-3.30;96.74;101987.66;5035356;28;20040;-74
2022/03/05 05:02:06;;;;;;;58.78;23.90;;;;;;;-3.36;97.11;101994.97;5035458;28;20018;-75
2022/03/05 05:04:31;;;;;;;55.13;24.50;;;;;;;-3.39;97.44;101998.25;5034451;28;20065;-75
2022/03/05 05:06:57;;;;;;;67.57;25.02;;;;;;;-3.43;97.06;101996.34;5035098;28;20377;-75
2022/03/05 05:09:23;;;;;;;62.38;24.65;;;;;;;-3.51;97.61;101977.19;5035261;28;20465;-75
2022/03/05 05:11:48;;;;;;;55.75;22.63;;;;;;;-3.47;97.38;101994.41;5034258;28;20442;-75
2022/03/05 05:14:13;;;;;;;59.90;22.92;;;;;;;-3.48;97.89;101990.13;5035060;28;20025;-75
2022/03/05 05:16:38;;;;;;;60.67;24.05;;;;;;;-3.46;97.72;101990.22;5034915;28;20132;-75
2022/03/05 05:21:48;;;;;;;56.78;24.20;;;;;;;-3.54;98.13;101987.25;5034869;28;20551;-75
2022/03/05 05:24:13;;;;;;;64.22;23.67;;;;;;;-3.57;98.06;101985.41;5034212;28;20033;-75
2022/03/05 05:26:39;;;;;;;54.92;22.80;;;;;;;-3.56;97.85;102002.47;5034583;28;20078;-74
2022/03/05 05:29:04;;;;;;;56.78;22.65;;;;;;;-3.64;98.25;101990.97;5034925;28;20034;-75
2022/03/05 05:31:29;;;;;;;57.85;23.58;;;;;;;-3.63;98.13;102002.94;5033902;28;20136;-75
2022/03/05 05:33:55;;;;;;;59.55;23.02;;;;;;;-3.62;98.52;102002.16;5034434;28;20030;-75
2022/03/05 05:36:20;;;;;;;56.45;21.85;;;;;;;-3.61;98.11;102008.13;5034463;28;20472;-75
2022/03/05 05:38:46;;;;;;;60.83;23.52;;;;;;;-3.59;98.19;102017.59;5033919;28;20040;-75
2022/03/05 05:41:16;;;;;;;60.17;24.52;;;;;;;-3.60;98.33;102012.41;5034542;28;20032;-75
2022/03/05 05:43:41;;;;;;;54.70;22.45;;;;;;;-3.63;98.52;102019.88;5034630;28;20072;-75
2022/03/05 05:46:06;;;;;;;59.38;24.08;;;;;;;-3.61;98.68;102021.72;5033955;28;20026;-75
2022/03/05 05:48:32;;;;;;;60.95;23.92;;;;;;;-3.64;98.84;102019.00;5033822;28;20049;-75
2022/03/05 05:50:57;;;;;;;62.35;22.15;;;;;;;-3.66;98.40;102023.19;5034529;28;20032;-75
2022/03/05 05:53:25;;;;;;;65.05;25.73;;;;;;;-3.67;98.66;102028.19;5033656;28;20144;-75
2022/03/05 05:55:50;;;;;;;58.38;23.40;;;;;;;-3.69;98.87;102020.47;5034111;28;20480;-75
2022/03/05 05:58:16;;;;;;;61.80;25.33;;;;;;;-3.71;99.32;102022.03;5034087;28;20029;-74
2022/03/05 06:00:41;;;;;;;60.42;25.05;;;;;;;-3.73;98.81;102028.72;5033390;28;20032;-75
2022/03/05 06:03:07;;;;;;;62.95;24.38;;;;;;;-3.72;99.35;102025.41;5034266;28;20033;-75
2022/03/05 06:05:32;;;;;;;60.58;25.70;;;;;;;-3.78;99.52;102017.41;5034259;28;20025;-74
2022/03/05 06:07:57;;;;;;;56.38;23.35;;;;;;;-3.78;99.03;102028.47;5033143;28;20029;-75
2022/03/05 06:10:22;;;;;;;61.58;25.27;;;;;;;-3.76;99.42;102018.38;5034062;28;20059;-74
2022/03/05 06:12:49;;;;;;;69.07;25.27;;;;;;;-3.77;99.96;102021.72;5033947;28;20378;-75
2022/03/05 06:15:15;;;;;;;58.33;25.25;;;;;;;-3.77;99.73;102021.72;5033060;28;20034;-75
2022/03/05 06:17:43;;;;;;;62.35;22.90;;;;;;;-3.73;99.50;102022.75;5033649;28;20033;-74
2022/03/05 06:20:10;;;;;;;56.38;22.85;;;;;;;-3.74;99.98;102019.31;5033982;28;20033;-74
2022/03/05 06:22:36;;;;;;;65.15;23.05;;;;;;;-3.74;100.00;102026.09;5033341;28;20370;-75
2022/03/05 06:25:01;;;;;;;56.60;23.27;;;;;;;-3.78;99.56;102022.50;5033870;28;20100;-75
2022/03/05 06:27:26;;;;;;;53.30;23.77;;;;;;;-3.79;99.66;102025.88;5033472;28;20204;-75
2022/03/05 06:29:51;;;;;;;56.45;23.42;;;;;;;-3.84;99.68;102019.63;5032803;28;20032;-75
2022/03/05 06:32:17;;;;;;;63.65;24.55;;;;;;;-3.77;99.86;102027.69;5033412;28;20031;-74
2022/03/05 06:34:42;;;;;;;64.85;24.45;;;;;;;-3.76;99.74;102026.03;5032911;28;20026;-74
2022/03/05 06:37:07;;;;;;;57.20;23.80;;;;;;;-3.72;100.00;102033.03;5033919;28;20037;-74
2022/03/05 06:39:33;;;;;;;60.28;24.02;;;;;;;-3.74;100.00;102026.97;5033585;28;20480;-75
2022/03/05 06:41:58;;;;;;;62.80;23.73;;;;;;;-3.70;100.00;102036.53;5032694;28;20036;-74
2022/03/05 06:44:23;;;;;;;63.97;23.88;;;;;;;-3.68;100.00;102032.41;5033371;28;20474;-74
2022/03/05 06:46:49;;;;;;;62.83;23.05;;;;;;;-3.68;100.00;102034.94;5033133;28;20025;-74
2022/03/05 06:49:14;;;;;;;71.65;25.70;;;;;;;-3.61;100.00;102038.69;5032278;28;20405;-74
2022/03/05 06:51:40;;;;;;;66.25;25.13;;;;;;;-3.62;99.96;102032.72;5033300;28;20030;-74
2022/03/05 06:54:05;;;;;;;70.20;25.33;;;;;;;-3.55;100.00;102034.81;5033505;28;20029;-74
2022/03/05 06:56:30;;;;;;;70.13;25.13;;;;;;;-3.54;100.00;102036.53;5032345;28;20069;-75
2022/03/05 06:58:56;;;;;;;60.20;23.65;;;;;;;-3.54;100.00;102026.34;5032427;28;20116;-74
2022/03/05 07:01:21;;;;;;;63.08;24.75;;;;;;;-3.44;100.00;102037.03;5032857;28;20032;-74
2022/03/05 07:03:46;;;;;;;69.53;26.20;;;;;;;-3.45;100.00;102040.41;5032353;28;20469;-75
2022/03/05 07:06:12;;;;;;;67.70;28.58;;;;;;;-3.42;100.00;102045.66;5032649;28;20068;-75
2022/03/05 07:08:37;;;;;;;68.28;28.40;;;;;;;-3.33;100.00;102048.69;5033005;28;20453;-74
2022/03/05 07:11:02;;;;;;;73.85;27.65;;;;;;;-3.31;100.00;102055.59;5032390;28;20041;-74
2022/03/05 07:13:28;;;;;;;68.55;26.95;;;;;;;-3.26;100.00;102060.97;5032802;28;20535;-75
2022/03/05 07:15:53;;;;;;;69.55;27.55;;;;;;;-3.22;100.00;102052.66;5032572;28;20030;-74
2022/03/05 07:18:18;;;;;;;71.63;26.95;;;;;;;-3.28;100.00;102044.69;5032083;28;20026;-75
2022/03/05 07:20:43;;;;;;;64.97;26.13;;;;;;;-3.17;100.00;102058.00;5032867;28;20033;-75
2022/03/05 07:23:09;;;;;;;68.03;25.67;;;;;;;-3.14;100.00;102063.25;5032992;28;20061;-74
2022/03/05 07:25:39;;;;;;;65.95;27.83;;;;;;;-3.08;100.00;102064.44;5031968;28;20037;-75
2022/03/05 07:28:09;;;;;;;64.35;25.50;;;;;;;-3.04;100.00;102069.72;5032864;28;20389;-75
2022/03/05 07:30:35;;;;;;;63.42;25.15;;;;;;;-2.98;100.00;102062.38;5032205;28;20021;-74
2022/03/05 07:33:00;;;;;;;71.15;25.80;;;;;;;-2.90;100.00;102066.22;5032048;28;20040;-75
2022/03/05 07:35:26;;;;;;;71.15;25.95;;;;;;;-2.83;100.00;102069.13;5032136;28;20037;-75
2022/03/05 07:37:51;;;;;;;65.35;24.30;;;;;;;-2.78;100.00;102056.63;5031808;28;20067;-75
2022/03/05 07:40:17;;;;;;;65.38;25.13;;;;;;;-2.68;100.00;102058.84;5032322;28;20437;-74
2022/03/05 07:42:42;;;;;;;71.20;25.15;;;;;;;-2.62;100.00;102064.25;5032264;28;20029;-75
2022/03/05 07:45:08;;;;;;;64.88;23.83;;;;;;;-2.60;99.61;102057.53;5031661;28;20159;-74
2022/03/05 07:47:33;;;;;;;64.30;24.83;;;;;;;-2.49;99.28;102052.06;5032194;28;20469;-75
2022/03/05 07:50:00;;;;;;;64.38;22.92;;;;;;;-2.42;99.10;102054.09;5032170;28;20057;-75
2022/03/05 07:52:25;;;;;;;65.57;24.58;;;;;;;-2.38;98.93;102046.69;5031351;28;20032;-75
2022/03/05 07:54:50;;;;;;;65.05;25.63;;;;;;;-2.28;98.85;102057.34;5031881;28;20022;-75
2022/03/05 07:57:15;;;;;;;63.97;24.58;;;;;;;-2.23;98.94;102050.75;5031983;28;20025;-75
2022/03/05 07:59:41;;;;;;;63.25;24.17;;;;;;;-2.16;98.67;102058.81;5031116;28;20026;-75
2022/03/05 08:02:06;;;;;;;62.95;25.70;;;;;;;-2.09;98.07;102069.31;5032369;28;20025;-75
2022/03/05 08:04:32;;;;;;;66.00;24.77;;;;;;;-2.03;98.08;102070.47;5032155;28;20029;-75
2022/03/05 08:06:57;;;;;;;61.63;24.35;;;;;;;-1.97;97.55;102070.75;5030966;28;20353;-75
2022/03/05 08:09:23;;;;;;;66.25;23.55;;;;;;;-1.90;97.63;102071.94;5031835;28;20029;-75
2022/03/05 08:11:48;;;;;;;59.03;23.58;;;;;;;-1.84;96.72;102071.34;5031705;28;20124;-75
2022/03/05 08:14:13;;;;;;;60.42;24.30;;;;;;;-1.77;96.77;102073.38;5030896;28;20029;-75
2022/03/05 08:16:38;;;;;;;61.00;24.88;;;;;;;-1.70;96.53;102089.09;5031860;28;20025;-75
2022/03/05 08:19:04;;;;;;;70.28;25.23;;;;;;;-1.62;96.32;102083.44;5031944;28;20022;-75
2022/03/05 08:21:29;;;;;;;63.67;24.10;;;;;;;-1.55;95.71;102076.13;5030987;28;20030;-75
2022/03/05 08:23:56;;;;;;;65.40;23.77;;;;;;;-1.45;95.05;102085.09;5031771;28;20084;-75
2022/03/05 08:26:21;;;;;;;58.50;23.52;;;;;;;-1.36;94.92;102087.19;5031687;28;20095;-75
2022/03/05 08:28:46;;;;;;;64.38;25.42;;;;;;;-1.29;94.45;102084.09;5030755;28;20473;-75
2022/03/05 08:31:12;;;;;;;63.58;23.58;;;;;;;-1.20;93.73;102090.50;5031488;28;20124;-75
2022/03/05 08:33:40;;;;;;;59.13;24.13;;;;;;;-1.10;93.21;102085.78;5031476;28;20083;-75
2022/03/05 08:36:06;;;;;;;63.28;23.63;;;;;;;-1.01;92.57;102088.75;5031288;28;20021;-75
2022/03/05 08:38:34;;;;;;;58.55;23.35;;;;;;;-0.92;91.35;102080.59;5031516;28;20036;-75
2022/03/05 08:40:59;;;;;;;65.22;25.60;;;;;;;-0.84;91.28;102082.69;5031267;28;20025;-75
2022/03/05 08:43:25;;;;;;;62.65;25.73;;;;;;;-0.77;90.62;102089.81;5030915;28;20035;-75
2022/03/05 08:45:50;;;;;;;62.38;24.02;;;;;;;-0.68;90.63;102085.91;5031618;28;20090;-75
2022/03/05 08:48:15;;;;;;;58.05;22.65;;;;;;;-0.60;90.74;102081.97;5030684;28;20045;-75
2022/03/05 08:50:41;;;;;;;60.38;22.85;;;;;;;-0.52;89.74;102083.16;5031242;28;20592;-75
2022/03/05 08:53:07;;;;;;;57.58;22.70;;;;;;;-0.46;89.68;102088.53;5031758;28;20091;-76
2022/03/05 08:55:33;;;;;;;57.83;23.27;;;;;;;-0.38;89.35;102084.59;5030484;28;20516;-76
2022/03/05 08:57:58;;;;;;;51.33;22.13;;;;;;;-0.31;89.08;102078.03;5031244;28;20040;-76
2022/03/05 09:00:24;;;;;;;56.80;23.48;;;;;;;-0.18;88.50;102081.97;5031154;28;20108;-76
2022/03/05 09:02:49;;;;;;;55.13;21.98;;;;;;;-0.12;88.25;102080.53;5030703;28;20163;-76
2022/03/05 09:05:14;;;;;;;57.47;23.42;;;;;;;-0.01;86.82;102078.38;5031354;28;20072;-76
2022/03/05 09:07:41;;;;;;;52.72;22.27;;;;;;;0.11;87.06;102084.00;5031184;28;20029;-76
2022/03/05 09:10:07;;;;;;;55.80;22.30;;;;;;;0.22;86.39;102090.41;5030823;28;20026;-75
2022/03/05 09:12:32;;;;;;;57.80;23.65;;;;;;;0.30;85.92;102087.28;5031167;28;20209;-75
2022/03/05 09:14:58;;;;;;;53.50;22.27;;;;;;;0.38;84.84;102083.31;5031079;28;20021;-75
2022/03/05 09:17:23;;;;;;;57.53;22.85;;;;;;;0.49;83.62;102082.03;5030479;28;20479;-75
2022/03/05 09:19:48;;;;;;;54.00;23.42;;;;;;;0.65;83.88;102086.03;5031242;28;20480;-75
2022/03/05 09:22:14;;;;;;;54.47;22.80;;;;;;;0.72;82.61;102074.28;5031626;28;20033;-75
2022/03/05 09:24:39;;;;;;;56.08;23.67;;;;;;;0.78;82.16;102069.38;5034119;28;20477;-76
2022/03/05 09:27:05;;;;;;;60.90;24.73;;;;;;;0.94;83.02;102071.69;5035089;28;20029;-76
2022/03/05 09:29:31;;;;;;;53.92;22.48;;;;;;;1.08;82.13;102070.50;5034631;28;20565;-76
2022/03/05 09:31:56;;;;;;;55.80;23.02;;;;;;;1.21;80.74;102068.31;5034064;28;20152;-76
2022/03/05 09:34:21;;;;;;;48.25;22.63;;;;;;;1.32;80.53;102065.31;5034722;28;20034;-76
2022/03/05 09:36:47;;;;;;;54.63;22.88;;;;;;;1.43;78.90;102065.66;5034224;28;20480;-76
2022/03/05 09:39:12;;;;;;;51.08;22.17;;;;;;;1.57;79.43;102066.13;5033866;28;20052;-76
2022/03/05 09:41:39;;;;;;;50.55;21.15;;;;;;;1.68;78.50;102066.50;5034526;28;20030;-75
2022/03/05 09:44:04;;;;;;;48.80;22.23;;;;;;;1.74;77.29;102058.97;5034462;28;20029;-76
2022/03/05 09:46:30;;;;;;;51.70;22.80;;;;;;;1.79;77.53;102057.41;5033856;28;20033;-76
2022/03/05 09:48:58;;;;;;;56.90;23.02;;;;;;;1.96;76.49;102061.41;5034252;28;20073;-76
2022/03/05 09:51:24;;;;;;;52.78;22.40;;;;;;;2.07;76.70;102064.31;5034214;28;20021;-76
2022/03/05 09:53:53;;;;;;;52.88;22.88;;;;;;;2.15;75.79;102057.69;5033828;28;20021;-76
2022/03/05 09:56:18;;;;;;;53.90;21.95;;;;;;;2.20;75.38;102047.53;5034140;28;20033;-76
2022/03/05 09:58:44;;;;;;;47.40;20.90;;;;;;;2.38;74.33;102060.06;5033635;28;20434;-76
2022/03/05 10:01:09;;;;;;;51.35;21.95;;;;;;;2.44;74.97;102060.25;5034581;28;20033;-76
2022/03/05 10:03:46;;;;;;;46.38;20.95;;;;;;;2.49;74.06;102062.13;5034483;28;20021;-76
2022/03/05 10:06:17;;;;;;;51.85;22.13;;;;;;;2.58;74.35;102058.94;5033301;28;20029;-75
2022/03/05 10:08:44;;;;;;;53.95;21.70;;;;;;;2.64;74.02;102065.97;5034012;28;20023;-76
2022/03/05 10:11:11;;;;;;;52.65;22.27;;;;;;;2.71;72.34;102071.34;5034057;28;20053;-76
2022/03/05 10:13:39;;;;;;;49.80;21.60;;;;;;;2.80;72.76;102066.44;5033188;28;20497;-75
2022/03/05 10:16:07;;;;;;;46.35;21.65;;;;;;;2.97;72.06;102066.03;5034285;28;20064;-76
2022/03/05 10:18:34;;;;;;;51.00;22.50;;;;;;;3.03;70.52;102069.66;5033876;28;20036;-76
2022/03/05 10:21:02;;;;;;;46.60;21.58;;;;;;;3.12;70.48;102063.00;5033086;28;20109;-76
2022/03/05 10:23:30;;;;;;;43.90;20.70;;;;;;;3.19;69.68;102057.19;5033503;28;20025;-76
2022/03/05 10:25:56;;;;;;;52.15;22.17;;;;;;;3.27;69.06;102055.69;5033784;28;20090;-75
2022/03/05 10:28:22;;;;;;;44.30;20.73;;;;;;;3.39;68.97;102050.84;5033317;28;20104;-75
2022/03/05 10:30:53;;;;;;;46.90;21.10;;;;;;;3.46;68.19;102047.56;5033758;28;20029;-75
2022/03/05 10:33:25;;;;;;;45.30;21.55;;;;;;;3.65;67.89;102050.63;5032880;28;20389;-75
2022/03/05 10:35:51;;;;;;;44.10;20.35;;;;;;;3.77;65.59;102050.03;5032279;28;20034;-76
2022/03/05 10:38:16;;;;;;;46.38;22.42;;;;;;;3.87;66.52;102045.13;5033307;28;20470;-76
2022/03/05 10:40:41;;;;;;;46.38;20.45;;;;;;;3.96;66.52;102050.50;5033256;28;20037;-75
2022/03/05 10:43:08;;;;;;;44.83;21.25;;;;;;;4.05;64.01;102051.53;5033533;28;20428;-75
2022/03/05 10:45:51;;;;;;;46.92;20.63;;;;;;;4.09;65.18;102040.47;5033437;28;20389;-76
2022/03/05 10:48:22;;;;;;;47.45;21.58;;;;;;;4.34;65.25;102050.47;5032237;28;20473;-76
2022/03/05 10:50:47;;;;;;;43.85;21.92;;;;;;;4.45;63.35;102049.00;5033139;28;20552;-76
2022/03/05 10:53:13;;;;;;;44.35;21.13;;;;;;;4.55;62.93;102049.19;5033283;28;20104;-76
2022/03/05 10:55:38;;;;;;;39.15;20.42;;;;;;;4.62;63.07;102059.69;5032416;28;20469;-76
2022/03/05 10:58:06;;;;;;;43.78;20.48;;;;;;;4.73;62.79;102049.56;5033472;28;20424;-76
2022/03/05 11:00:32;;;;;;;49.63;22.05;;;;;;;4.85;62.78;102052.38;5033029;28;20072;-76
2022/03/05 11:03:00;;;;;;;45.85;22.45;;;;;;;4.99;62.41;102046.59;5032096;28;20051;-76
2022/03/05 11:05:26;;;;;;;44.83;21.55;;;;;;;5.17;62.20;102049.53;5033145;28;20032;-76